createdAt,value
2022-08-03T00:00:42.767Z,0.60
2022-08-03T00:03:10.409Z,0.52
2022-08-03T00:05:38.552Z,0.50
2022-08-03T00:08:06.099Z,0.60
2022-08-03T00:10:34.688Z,0.60
2022-08-03T00:13:02.342Z,0.30
2022-08-03T00:15:30.098Z,0.50
2022-08-03T00:17:58.258Z,0.52
2022-08-03T00:20:26.113Z,0.50
2022-08-03T00:27:48.955Z,0.50
2022-08-03T00:30:18.683Z,0.68
2022-08-03T00:32:47.459Z,0.40
2022-08-03T00:35:37.141Z,0.50
2022-08-03T00:38:03.141Z,0.60
2022-08-03T00:40:31.930Z,0.60
2022-08-03T00:43:04.270Z,0.40
2022-08-03T00:45:42.527Z,0.70
2022-08-03T00:48:31.066Z,0.32
2022-08-03T00:51:00.021Z,0.50
2022-08-03T00:58:24.215Z,0.50
2022-08-03T01:00:52.278Z,0.30
2022-08-03T01:03:20.054Z,0.40
2022-08-03T01:05:53.729Z,0.50
2022-08-03T01:08:45.641Z,0.30
2022-08-03T01:11:34.955Z,0.40
2022-08-03T01:14:34.315Z,0.30
2022-08-03T01:17:15.120Z,0.30
2022-08-03T01:19:56.659Z,0.20
2022-08-03T01:23:03.052Z,0.47
2022-08-03T01:25:46.296Z,0.32
2022-08-03T01:29:01.735Z,0.20
2022-08-03T01:32:58.488Z,0.45
2022-08-03T01:35:02.539Z,0.13
2022-08-03T01:37:39.698Z,0.25
2022-08-03T01:40:09.261Z,0.25
2022-08-03T01:42:38.562Z,0.30
2022-08-03T01:45:08.939Z,0.20
2022-08-03T01:47:37.078Z,0.20
2022-08-03T01:50:07.284Z,0.20
2022-08-03T01:52:37.874Z,0.40
2022-08-03T01:55:07.431Z,0.20
2022-08-03T01:58:04.588Z,0.30
2022-08-03T02:00:26.047Z,0.40
2022-08-03T02:02:55.787Z,0.40
2022-08-03T02:05:24.624Z,0.40
2022-08-03T02:07:53.090Z,0.30
2022-08-03T02:10:34.629Z,0.40
2022-08-03T02:13:06.840Z,0.38
2022-08-03T02:15:37.552Z,0.50
2022-08-03T02:18:08.120Z,0.40
2022-08-03T02:20:38.984Z,0.52
2022-08-03T02:23:07.398Z,0.50
2022-08-03T02:25:43.175Z,0.60
2022-08-03T02:28:20.092Z,0.50
2022-08-03T02:30:55.618Z,0.60
2022-08-03T02:33:37.528Z,0.60
2022-08-03T02:36:06.322Z,0.52
2022-08-03T02:38:36.895Z,0.60
2022-08-03T02:41:09.030Z,0.68
2022-08-03T02:43:40.224Z,0.50
2022-08-03T02:46:32.716Z,0.68
2022-08-03T02:49:40.710Z,0.68
2022-08-03T02:51:54.395Z,0.50
2022-08-03T02:54:25.013Z,0.60
2022-08-03T02:56:55.228Z,0.63
2022-08-03T02:59:24.891Z,0.68
2022-08-03T03:01:55.114Z,0.68
2022-08-03T03:04:24.203Z,0.70
2022-08-03T03:06:58.792Z,1.10
2022-08-03T03:09:40.387Z,0.70
2022-08-03T03:12:11.484Z,0.68
2022-08-03T03:14:39.878Z,0.60
2022-08-03T03:17:09.261Z,0.73
2022-08-03T03:19:39.461Z,0.80
2022-08-03T03:22:08.523Z,0.80
2022-08-03T03:24:36.933Z,0.70
2022-08-03T03:27:05.465Z,0.90
2022-08-03T03:29:39.156Z,0.80
2022-08-03T03:32:09.144Z,0.60
2022-08-03T03:34:37.671Z,0.63
2022-08-03T03:37:05.839Z,0.60
2022-08-03T03:39:33.702Z,0.60
2022-08-03T03:44:30.010Z,0.60
2022-08-03T03:47:00.929Z,0.70
2022-08-03T03:49:28.726Z,0.80
2022-08-03T03:54:25.440Z,0.85
2022-08-03T03:56:57.642Z,0.70
2022-08-03T03:59:25.145Z,0.60
2022-08-03T04:04:45.534Z,0.90
2022-08-03T04:07:31.494Z,0.80
2022-08-03T04:10:17.706Z,0.80
2022-08-03T04:12:50.361Z,0.95
2022-08-03T04:15:22.853Z,0.90
2022-08-03T04:17:53.007Z,0.88
2022-08-03T04:20:22.920Z,1.13
2022-08-03T04:22:53.001Z,0.82
2022-08-03T04:25:24.261Z,1.17
2022-08-03T04:28:29.892Z,1.20
2022-08-03T04:30:48.343Z,0.90
2022-08-03T04:33:17.689Z,1.00
2022-08-03T04:36:01.276Z,0.60
2022-08-03T04:38:37.404Z,0.90
2022-08-03T04:41:05.734Z,0.95
2022-08-03T04:43:34.267Z,0.90
2022-08-03T04:46:02.942Z,0.80
2022-08-03T04:48:30.863Z,0.77
2022-08-03T04:53:26.366Z,0.82
2022-08-03T04:55:54.112Z,0.90
2022-08-03T04:58:21.714Z,1.10
2022-08-03T05:00:52.161Z,1.08
2022-08-03T05:05:49.658Z,0.90
2022-08-03T05:08:28.164Z,0.70
2022-08-03T05:10:59.090Z,1.10
2022-08-03T05:13:27.071Z,0.63
2022-08-03T05:15:54.834Z,0.75
2022-08-03T05:18:23.064Z,0.73
2022-08-03T05:20:50.786Z,0.40
2022-08-03T05:23:18.532Z,0.60
2022-08-03T05:25:50.021Z,0.50
2022-08-03T05:28:18.242Z,0.60
2022-08-03T05:30:46.439Z,0.60
2022-08-03T05:33:14.168Z,0.50
2022-08-03T05:35:57.994Z,0.60
2022-08-03T05:38:34.521Z,0.60
2022-08-03T05:41:22.169Z,0.70
2022-08-03T05:43:55.685Z,0.43
2022-08-03T05:46:23.931Z,0.50
2022-08-03T05:48:51.704Z,0.70
2022-08-03T05:53:48.246Z,0.50
2022-08-03T05:58:46.712Z,0.80
2022-08-03T06:01:16.919Z,0.70
2022-08-03T06:03:46.169Z,0.80
2022-08-03T06:06:14.099Z,0.90
2022-08-03T06:08:44.038Z,0.47
2022-08-03T06:11:12.479Z,1.20
2022-08-03T06:13:40.920Z,0.77
2022-08-03T06:16:09.276Z,1.50
2022-08-03T06:18:37.996Z,1.10
2022-08-03T06:21:14.378Z,1.08
2022-08-03T06:23:54.356Z,0.98
2022-08-03T06:26:28.058Z,1.02
2022-08-03T06:28:56.118Z,1.33
2022-08-03T06:31:33.107Z,1.40
2022-08-03T06:34:32.099Z,1.35
2022-08-03T06:36:53.347Z,1.85
2022-08-03T06:41:53.583Z,2.13
2022-08-03T06:44:21.631Z,1.90
2022-08-03T06:49:16.848Z,1.88
2022-08-03T06:52:03.767Z,1.63
2022-08-03T06:57:01.264Z,2.50
2022-08-03T07:00:07.494Z,2.20
2022-08-03T07:02:20.016Z,2.40
2022-08-03T07:04:49.024Z,2.55
2022-08-03T07:07:17.482Z,2.33
2022-08-03T07:09:56.653Z,2.70
2022-08-03T07:12:26.536Z,2.28
2022-08-03T07:14:59.822Z,2.60
2022-08-03T07:17:30.522Z,2.88
2022-08-03T07:19:59.458Z,2.90
2022-08-03T07:22:27.431Z,2.65
2022-08-03T07:24:55.616Z,2.92
2022-08-03T07:27:23.209Z,3.50
2022-08-03T07:29:50.928Z,2.25
2022-08-03T07:32:18.902Z,2.50
2022-08-03T07:34:47.011Z,2.97
2022-08-03T07:39:42.349Z,2.17
2022-08-03T07:42:10.163Z,3.05
2022-08-03T07:47:07.212Z,2.65
2022-08-03T07:49:41.349Z,2.00
2022-08-03T07:52:28.386Z,2.80
2022-08-03T07:54:56.305Z,3.03
2022-08-03T07:57:24.182Z,2.47
2022-08-03T08:02:40.251Z,2.78
2022-08-03T08:05:08.518Z,3.05
2022-08-03T08:07:36.530Z,2.80
2022-08-03T08:10:06.795Z,3.00
2022-08-03T08:12:34.564Z,2.60
2022-08-03T08:15:02.743Z,2.60
2022-08-03T08:17:30.698Z,2.90
2022-08-03T08:19:58.352Z,2.80
2022-08-03T08:22:29.885Z,3.10
2022-08-03T08:25:01.836Z,2.50
2022-08-03T08:28:31.804Z,3.47
2022-08-03T08:30:19.699Z,2.42
2022-08-03T08:32:48.163Z,2.60
2022-08-03T08:35:16.978Z,2.50
2022-08-03T08:37:51.006Z,2.58
2022-08-03T08:40:22.574Z,2.65
2022-08-03T08:42:59.165Z,2.50
2022-08-03T08:45:28.363Z,2.70
2022-08-03T08:48:01.858Z,2.60
2022-08-03T08:50:32.009Z,2.47
2022-08-03T08:53:03.750Z,2.60
2022-08-03T08:55:58.877Z,2.70
2022-08-03T08:58:23.383Z,2.47
2022-08-03T09:00:51.375Z,2.30
2022-08-03T09:03:22.513Z,2.42
2022-08-03T09:06:01.208Z,2.70
2022-08-03T09:08:30.229Z,2.65
2022-08-03T09:10:58.299Z,2.53
2022-08-03T09:13:26.351Z,2.50
2022-08-03T09:16:18.396Z,2.53
2022-08-03T09:18:51.465Z,2.25
2022-08-03T09:21:34.937Z,2.83
2022-08-03T09:24:06.273Z,2.50
2022-08-03T09:26:37.339Z,2.30
2022-08-03T09:29:14.835Z,2.15
2022-08-03T09:31:45.363Z,2.00
2022-08-03T09:34:15.995Z,2.40
2022-08-03T09:36:49.349Z,1.80
2022-08-03T09:39:17.959Z,1.70
2022-08-03T09:41:48.246Z,2.10
2022-08-03T09:44:25.347Z,1.83
2022-08-03T09:46:58.961Z,2.33
2022-08-03T09:49:26.747Z,2.40
2022-08-03T09:54:43.495Z,2.65
2022-08-03T09:57:22.761Z,2.35
2022-08-03T09:59:54.989Z,2.47
2022-08-03T10:02:41.910Z,2.08
2022-08-03T10:05:19.474Z,2.13
2022-08-03T10:07:50.824Z,2.00
2022-08-03T10:10:30.726Z,2.20
2022-08-03T10:13:03.208Z,2.60
2022-08-03T10:16:22.083Z,1.90
2022-08-03T10:18:19.856Z,2.10
2022-08-03T10:23:23.845Z,2.17
2022-08-03T10:25:58.025Z,2.00
2022-08-03T10:28:26.407Z,2.25
2022-08-03T10:30:55.450Z,2.53
2022-08-03T10:33:51.126Z,1.92
2022-08-03T10:36:16.939Z,2.17
2022-08-03T10:38:52.752Z,2.10
2022-08-03T10:41:23.217Z,2.03
2022-08-03T10:44:03.825Z,1.80
2022-08-03T10:46:33.568Z,2.45
2022-08-03T10:49:01.775Z,2.22
2022-08-03T10:51:32.236Z,2.08
2022-08-03T10:54:01.932Z,1.92
2022-08-03T10:56:51.465Z,3.00
2022-08-03T10:59:48.473Z,2.10
2022-08-03T11:02:16.641Z,2.10
2022-08-03T11:04:45.334Z,2.33
2022-08-03T11:07:20.090Z,1.63
2022-08-03T11:09:53.418Z,1.92
2022-08-03T11:12:34.363Z,2.10
2022-08-03T11:15:08.861Z,2.30
2022-08-03T11:17:46.517Z,1.80
2022-08-03T11:20:54.172Z,1.88
2022-08-03T11:24:02.717Z,1.77
2022-08-03T11:26:34.633Z,2.00
2022-08-03T11:29:31.520Z,1.90
2022-08-03T11:31:59.386Z,1.70
2022-08-03T11:34:27.014Z,2.03
2022-08-03T11:37:22.237Z,3.45
2022-08-03T11:39:52.979Z,2.70
2022-08-03T11:42:27.091Z,1.80
2022-08-03T11:44:57.676Z,2.33
2022-08-03T11:47:29.645Z,2.20
2022-08-03T11:50:00.369Z,1.75
2022-08-03T11:52:33.899Z,2.22
2022-08-03T11:55:01.956Z,2.10
2022-08-03T11:59:10.798Z,1.95
2022-08-03T12:00:34.352Z,2.67
2022-08-03T12:03:14.507Z,2.03
2022-08-03T12:05:51.415Z,2.40
2022-08-03T12:08:32.225Z,2.28
2022-08-03T12:11:04.558Z,1.88
2022-08-03T12:14:45.352Z,2.55
2022-08-03T12:16:28.854Z,1.55
2022-08-03T12:18:57.880Z,1.90
2022-08-03T12:21:25.907Z,2.28
2022-08-03T12:24:00.318Z,2.03
2022-08-03T12:26:30.142Z,1.92
2022-08-03T12:28:58.437Z,2.00
2022-08-03T12:31:27.101Z,1.95
2022-08-03T12:34:03.332Z,1.88
2022-08-03T12:36:33.273Z,1.77
2022-08-03T12:39:08.928Z,1.80
2022-08-03T12:41:39.529Z,1.88
2022-08-03T12:44:08.762Z,1.63
2022-08-03T12:46:41.665Z,2.08
2022-08-03T12:49:19.090Z,1.95
2022-08-03T12:51:47.059Z,2.78
2022-08-03T12:54:24.523Z,2.00
2022-08-03T12:57:16.225Z,2.25
2022-08-03T12:59:53.592Z,2.20
2022-08-03T13:04:55.386Z,2.13
2022-08-03T13:07:23.621Z,1.90
2022-08-03T13:09:56.868Z,2.00
2022-08-03T13:12:27.531Z,2.67
2022-08-03T13:15:00.185Z,1.90
2022-08-03T13:17:28.227Z,2.50
2022-08-03T13:19:56.505Z,2.33
2022-08-03T13:22:27.207Z,1.35
2022-08-03T13:24:57.472Z,2.05
2022-08-03T13:28:04.415Z,2.20
2022-08-03T13:30:17.905Z,2.13
2022-08-03T13:32:58.841Z,2.05
2022-08-03T13:35:26.947Z,1.85
2022-08-03T13:37:54.670Z,1.80
2022-08-03T13:40:23.822Z,1.52
2022-08-03T13:42:58.536Z,1.90
2022-08-03T13:45:27.596Z,2.00
2022-08-03T13:47:55.468Z,1.63
2022-08-03T13:50:24.110Z,1.55
2022-08-03T13:52:51.943Z,2.08
2022-08-03T13:55:19.859Z,1.95
2022-08-03T13:58:04.846Z,1.48
2022-08-03T14:00:36.407Z,2.00
2022-08-03T14:03:12.583Z,1.88
2022-08-03T14:05:43.011Z,2.30
2022-08-03T14:08:11.121Z,1.80
2022-08-03T14:10:43.222Z,1.65
2022-08-03T14:13:17.471Z,2.05
2022-08-03T14:15:49.862Z,1.80
2022-08-03T14:18:27.905Z,2.03
2022-08-03T14:21:05.931Z,1.73
2022-08-03T14:23:34.535Z,1.40
2022-08-03T14:26:02.077Z,1.98
2022-08-03T14:28:30.080Z,1.85
2022-08-03T14:30:58.231Z,1.70
2022-08-03T14:33:26.148Z,1.77
2022-08-03T14:35:54.612Z,2.40
2022-08-03T14:38:23.163Z,2.20
2022-08-03T14:40:51.494Z,1.50
2022-08-03T14:43:21.255Z,1.77
2022-08-03T14:45:52.314Z,1.60
2022-08-03T14:50:27.778Z,1.70
2022-08-03T14:51:09.090Z,2.03
2022-08-03T14:53:36.901Z,1.90
2022-08-03T14:56:09.605Z,1.60
2022-08-03T14:58:38.678Z,1.70
2022-08-03T15:02:04.675Z,1.75
2022-08-03T15:03:55.252Z,1.95
2022-08-03T15:06:22.937Z,1.65
2022-08-03T15:09:13.619Z,2.05
2022-08-03T15:11:38.715Z,1.75
2022-08-03T15:14:09.443Z,2.40
2022-08-03T15:16:39.764Z,1.88
2022-08-03T15:20:03.242Z,1.60
2022-08-03T15:21:55.268Z,2.15
2022-08-03T15:24:23.097Z,1.65
2022-08-03T15:26:53.045Z,2.17
2022-08-03T15:30:08.221Z,1.90
2022-08-03T15:32:09.636Z,1.55
2022-08-03T15:34:37.971Z,1.83
2022-08-03T15:37:12.906Z,1.90
2022-08-03T15:39:58.122Z,1.83
2022-08-03T15:42:29.597Z,1.90
2022-08-03T15:44:57.985Z,1.60
2022-08-03T15:47:26.555Z,1.60
2022-08-03T15:49:54.238Z,1.80
2022-08-03T15:52:22.075Z,1.73
2022-08-03T15:54:49.718Z,2.10
2022-08-03T15:57:17.890Z,1.50
2022-08-03T15:59:46.032Z,1.88
2022-08-03T16:02:13.988Z,1.70
2022-08-03T16:04:42.221Z,1.80
2022-08-03T16:07:12.587Z,1.80
2022-08-03T16:09:43.470Z,1.55
2022-08-03T16:12:15.665Z,2.00
2022-08-03T16:14:52.679Z,2.50
2022-08-03T16:17:24.231Z,2.00
2022-08-03T16:19:54.871Z,1.92
2022-08-03T16:22:26.371Z,1.90
2022-08-03T16:24:54.661Z,2.10
2022-08-03T16:27:37.686Z,2.33
2022-08-03T16:30:13.119Z,1.70
2022-08-03T16:32:41.258Z,1.48
2022-08-03T16:35:09.500Z,1.77
2022-08-03T16:37:50.766Z,1.92
2022-08-03T16:40:25.205Z,2.30
2022-08-03T16:42:53.947Z,1.88
2022-08-03T16:45:22.226Z,1.33
2022-08-03T16:48:05.279Z,1.73
2022-08-03T16:50:35.772Z,1.65
2022-08-03T16:53:09.059Z,1.52
2022-08-03T16:55:43.382Z,1.65
2022-08-03T16:58:24.474Z,1.92
2022-08-03T17:01:21.770Z,2.28
2022-08-03T17:04:03.453Z,1.85
2022-08-03T17:06:45.175Z,2.00
2022-08-03T17:09:20.838Z,1.95
2022-08-03T17:11:50.750Z,1.88
2022-08-03T17:14:28.374Z,2.20
2022-08-03T17:17:03.750Z,2.25
2022-08-03T17:22:18.812Z,1.98
2022-08-03T17:24:51.605Z,2.17
2022-08-03T17:28:48.490Z,2.10
2022-08-03T17:30:13.304Z,2.30
2022-08-03T17:32:52.741Z,2.33
2022-08-03T17:35:34.333Z,2.22
2022-08-03T17:38:10.286Z,2.08
2022-08-03T17:40:48.024Z,2.55
2022-08-03T17:44:14.509Z,1.70
2022-08-03T17:46:10.572Z,2.55
2022-08-03T17:48:41.223Z,2.40
2022-08-03T17:51:34.541Z,2.47
2022-08-03T17:54:30.701Z,2.67
2022-08-03T18:00:35.301Z,2.42
2022-08-03T18:03:56.939Z,2.45
2022-08-03T18:06:31.304Z,2.65
2022-08-03T18:09:05.231Z,2.40
2022-08-03T18:11:55.493Z,2.20
2022-08-03T18:14:57.345Z,2.60
2022-08-03T18:17:54.978Z,2.72
2022-08-03T18:20:33.189Z,2.53
2022-08-03T18:23:10.569Z,2.40
2022-08-03T18:25:49.991Z,1.70
2022-08-03T18:28:23.182Z,2.53
2022-08-03T18:30:54.574Z,2.67
2022-08-03T18:34:17.325Z,2.53
2022-08-03T18:36:29.495Z,3.08
2022-08-03T18:39:01.747Z,2.17
2022-08-03T18:41:34.676Z,2.35
2022-08-03T18:44:08.394Z,2.40
2022-08-03T18:47:08.059Z,2.30
2022-08-03T18:50:19.349Z,2.38
2022-08-03T18:53:15.743Z,1.90
2022-08-03T18:56:02.742Z,1.90
2022-08-03T18:58:47.494Z,1.88
2022-08-03T19:01:58.379Z,1.38
2022-08-03T19:04:35.777Z,1.75
2022-08-03T19:07:08.010Z,1.75
2022-08-03T19:09:36.095Z,1.92
2022-08-03T19:12:30.770Z,1.48
2022-08-03T19:15:10.577Z,1.95
2022-08-03T19:17:53.409Z,1.60
2022-08-03T19:20:23.020Z,2.15
2022-08-03T19:22:55.089Z,1.70
2022-08-03T19:25:34.306Z,2.10
2022-08-03T19:28:07.410Z,2.00
2022-08-03T19:30:38.978Z,1.63
2022-08-03T19:33:11.330Z,2.28
2022-08-03T19:35:51.696Z,1.80
2022-08-03T19:38:28.689Z,1.65
2022-08-03T19:41:03.670Z,1.88
2022-08-03T19:44:08.887Z,1.77
2022-08-03T19:47:01.542Z,1.70
2022-08-03T19:49:56.975Z,2.17
2022-08-03T19:52:31.238Z,1.98
2022-08-03T19:55:00.494Z,1.88
2022-08-03T19:57:29.492Z,2.10
2022-08-03T20:00:03.415Z,2.65
2022-08-03T20:02:35.346Z,2.45
2022-08-03T20:05:03.076Z,2.00
2022-08-03T20:07:32.936Z,2.63
2022-08-03T20:10:04.375Z,2.13
2022-08-03T20:12:39.197Z,2.40
2022-08-03T20:15:09.947Z,2.40
2022-08-03T20:17:54.570Z,2.30
2022-08-03T20:20:36.034Z,1.83
2022-08-03T20:23:11.406Z,1.85
2022-08-03T20:25:57.357Z,2.00
2022-08-03T20:28:50.088Z,2.30
2022-08-03T20:31:25.137Z,2.63
2022-08-03T20:34:01.092Z,1.77
2022-08-03T20:36:29.186Z,2.10
2022-08-03T20:38:58.759Z,2.55
2022-08-03T20:41:30.705Z,2.00
2022-08-03T20:44:07.481Z,1.90
2022-08-03T20:46:53.437Z,2.00
2022-08-03T20:49:26.043Z,2.38
2022-08-03T20:51:54.606Z,2.42
2022-08-03T20:54:29.681Z,2.88
2022-08-03T20:57:03.573Z,2.57
2022-08-03T20:59:50.226Z,2.67
2022-08-03T21:02:28.886Z,2.97
2022-08-03T21:05:03.665Z,2.00
2022-08-03T21:08:06.368Z,2.50
2022-08-03T21:10:38.594Z,2.40
2022-08-03T21:13:04.062Z,2.40
2022-08-03T21:13:39.410Z,2.30
2022-08-03T21:16:14.612Z,2.20
2022-08-03T21:18:51.168Z,2.00
2022-08-03T21:21:21.513Z,1.67
2022-08-03T21:23:52.711Z,2.00
2022-08-03T21:26:22.632Z,2.05
2022-08-03T21:28:52.059Z,2.10
2022-08-03T21:31:25.577Z,2.00
2022-08-03T21:33:55.580Z,2.25
2022-08-03T21:36:23.702Z,2.03
2022-08-03T21:38:56.504Z,2.35
2022-08-03T21:41:31.344Z,1.65
2022-08-03T21:44:00.903Z,1.90
2022-08-03T21:46:35.210Z,2.00
2022-08-03T21:50:05.845Z,1.90
2022-08-03T21:51:58.033Z,2.20
2022-08-03T21:54:38.283Z,2.13
2022-08-03T21:57:13.359Z,2.20
2022-08-03T21:59:51.723Z,2.20
2022-08-03T22:02:24.500Z,1.75
2022-08-03T22:04:55.564Z,2.00
2022-08-03T22:07:29.038Z,1.90
2022-08-03T22:09:58.895Z,2.30
2022-08-03T22:12:29.753Z,2.22
2022-08-03T22:15:07.530Z,2.33
2022-08-03T22:17:54.527Z,2.70
2022-08-03T22:20:25.345Z,2.65
2022-08-03T22:22:56.601Z,2.17
2022-08-03T22:25:30.925Z,2.28
2022-08-03T22:28:08.249Z,2.13
2022-08-03T22:30:37.367Z,2.70
2022-08-03T22:33:11.169Z,2.22
2022-08-03T22:35:48.267Z,2.42
2022-08-03T22:38:18.089Z,3.35
2022-08-03T22:40:49.907Z,2.60
2022-08-03T22:43:17.955Z,3.17
2022-08-03T22:48:40.856Z,3.28
2022-08-03T22:51:09.502Z,3.40
2022-08-03T22:56:07.312Z,2.63
2022-08-03T22:58:35.503Z,3.10
2022-08-03T23:01:08.101Z,2.58
2022-08-03T23:03:59.878Z,3.20
2022-08-03T23:06:34.586Z,1.92
2022-08-03T23:09:06.261Z,3.22
2022-08-03T23:11:45.412Z,2.65
2022-08-03T23:14:16.494Z,3.20
2022-08-03T23:16:45.700Z,2.85
2022-08-03T23:19:16.651Z,3.83
2022-08-03T23:21:53.302Z,3.55
2022-08-03T23:24:30.553Z,3.10
2022-08-03T23:26:59.433Z,4.43
2022-08-03T23:29:29.817Z,3.60
2022-08-03T23:31:59.579Z,3.97
2022-08-03T23:34:46.665Z,4.10
2022-08-03T23:37:16.732Z,3.53
2022-08-03T23:39:48.646Z,3.08
2022-08-03T23:42:20.485Z,3.22
2022-08-03T23:44:54.756Z,3.58
2022-08-03T23:47:23.433Z,3.55
2022-08-03T23:49:54.629Z,3.33
2022-08-03T23:52:37.516Z,3.38
2022-08-03T23:55:18.090Z,3.65
2022-08-03T23:58:10.975Z,3.42
